sensor_id;sensor_type;location;lat;lon;timestamp;P1;durP1;ratioP1;P2;durP2;ratioP2
15577;SDS011;17667;45.598;5.214;2023-05-10T00:01:45;0.10;;;0.10;;
15577;SDS011;17667;45.598;5.214;2023-05-10T00:04:32;0.10;;;0.10;;
15577;SDS011;17667;45.598;5.214;2023-05-10T00:07:20;0.07;;;0.07;;
15577;SDS011;17667;45.598;5.214;2023-05-10T00:10:08;0.07;;;0.07;;
15577;SDS011;17667;45.598;5.214;2023-05-10T00:12:55;0.10;;;0.10;;
15577;SDS011;17667;45.598;5.214;2023-05-10T00:15:43;0.10;;;0.10;;
15577;SDS011;17667;45.598;5.214;2023-05-10T00:18:32;0.10;;;0.10;;
15577;SDS011;17667;45.598;5.214;2023-05-10T00:21:19;0.00;;;0.00;;
15577;SDS011;17667;45.598;5.214;2023-05-10T00:24:10;0.00;;;0.00;;
15577;SDS011;17667;45.598;5.214;2023-05-10T00:26:57;0.00;;;0.00;;
15577;SDS011;17667;45.598;5.214;2023-05-10T00:29:46;0.20;;;0.00;;
15577;SDS011;17667;45.598;5.214;2023-05-10T00:32:34;0.23;;;0.10;;
15577;SDS011;17667;45.598;5.214;2023-05-10T00:35:23;0.07;;;0.07;;
15577;SDS011;17667;45.598;5.214;2023-05-10T00:38:11;0.10;;;0.10;;
15577;SDS011;17667;45.598;5.214;2023-05-10T00:41:00;0.10;;;0.10;;
15577;SDS011;17667;45.598;5.214;2023-05-10T00:43:49;0.10;;;0.10;;
15577;SDS011;17667;45.598;5.214;2023-05-10T00:46:37;0.00;;;0.00;;
15577;SDS011;17667;45.598;5.214;2023-05-10T00:49:25;0.10;;;0.10;;
15577;SDS011;17667;45.598;5.214;2023-05-10T00:52:14;0.10;;;0.10;;
15577;SDS011;17667;45.598;5.214;2023-05-10T00:55:03;0.00;;;0.00;;
15577;SDS011;17667;45.598;5.214;2023-05-10T00:57:51;0.00;;;0.00;;
15577;SDS011;17667;45.598;5.214;2023-05-10T01:00:40;0.00;;;0.00;;
15577;SDS011;17667;45.598;5.214;2023-05-10T01:03:29;0.07;;;0.07;;
15577;SDS011;17667;45.598;5.214;2023-05-10T01:06:17;0.10;;;0.10;;
15577;SDS011;17667;45.598;5.214;2023-05-10T01:09:06;0.00;;;0.00;;
15577;SDS011;17667;45.598;5.214;2023-05-10T01:11:54;0.00;;;0.00;;
15577;SDS011;17667;45.598;5.214;2023-05-10T01:14:42;0.10;;;0.10;;
15577;SDS011;17667;45.598;5.214;2023-05-10T01:17:30;0.10;;;0.10;;
15577;SDS011;17667;45.598;5.214;2023-05-10T01:20:19;0.00;;;0.00;;
15577;SDS011;17667;45.598;5.214;2023-05-10T01:23:12;0.00;;;0.00;;
15577;SDS011;17667;45.598;5.214;2023-05-10T01:26:26;0.10;;;0.10;;
15577;SDS011;17667;45.598;5.214;2023-05-10T01:33:01;0.10;;;0.10;;
15577;SDS011;17667;45.598;5.214;2023-05-10T01:35:59;0.03;;;0.03;;
15577;SDS011;17667;45.598;5.214;2023-05-10T01:38:53;0.00;;;0.00;;
15577;SDS011;17667;45.598;5.214;2023-05-10T01:41:49;0.10;;;0.10;;
15577;SDS011;17667;45.598;5.214;2023-05-10T01:44:53;0.10;;;0.10;;
15577;SDS011;17667;45.598;5.214;2023-05-10T01:47:46;0.10;;;0.00;;
15577;SDS011;17667;45.598;5.214;2023-05-10T01:50:40;0.00;;;0.00;;
15577;SDS011;17667;45.598;5.214;2023-05-10T01:53:30;0.03;;;0.03;;
15577;SDS011;17667;45.598;5.214;2023-05-10T01:56:19;0.10;;;0.10;;
15577;SDS011;17667;45.598;5.214;2023-05-10T01:59:12;0.00;;;0.00;;
15577;SDS011;17667;45.598;5.214;2023-05-10T02:02:03;0.03;;;0.03;;
15577;SDS011;17667;45.598;5.214;2023-05-10T02:04:52;0.10;;;0.10;;
15577;SDS011;17667;45.598;5.214;2023-05-10T02:07:43;0.10;;;0.10;;
15577;SDS011;17667;45.598;5.214;2023-05-10T02:10:31;0.10;;;0.00;;
15577;SDS011;17667;45.598;5.214;2023-05-10T02:13:20;0.00;;;0.00;;
15577;SDS011;17667;45.598;5.214;2023-05-10T02:16:09;0.00;;;0.00;;
15577;SDS011;17667;45.598;5.214;2023-05-10T02:19:00;0.00;;;0.00;;
15577;SDS011;17667;45.598;5.214;2023-05-10T02:21:49;0.00;;;0.00;;
15577;SDS011;17667;45.598;5.214;2023-05-10T02:24:39;0.00;;;0.00;;
15577;SDS011;17667;45.598;5.214;2023-05-10T02:27:27;0.00;;;0.00;;
15577;SDS011;17667;45.598;5.214;2023-05-10T02:30:16;0.00;;;0.00;;
15577;SDS011;17667;45.598;5.214;2023-05-10T02:33:04;0.10;;;0.10;;
15577;SDS011;17667;45.598;5.214;2023-05-10T02:35:53;0.00;;;0.00;;
15577;SDS011;17667;45.598;5.214;2023-05-10T02:38:41;0.10;;;0.10;;
15577;SDS011;17667;45.598;5.214;2023-05-10T02:41:32;0.10;;;0.10;;
15577;SDS011;17667;45.598;5.214;2023-05-10T02:44:20;0.00;;;0.00;;
15577;SDS011;17667;45.598;5.214;2023-05-10T02:47:09;0.00;;;0.00;;
15577;SDS011;17667;45.598;5.214;2023-05-10T02:49:57;0.10;;;0.10;;
15577;SDS011;17667;45.598;5.214;2023-05-10T02:52:46;0.00;;;0.00;;
15577;SDS011;17667;45.598;5.214;2023-05-10T02:55:38;0.03;;;0.03;;
15577;SDS011;17667;45.598;5.214;2023-05-10T02:58:29;0.10;;;0.10;;
15577;SDS011;17667;45.598;5.214;2023-05-10T03:01:17;0.10;;;0.10;;
15577;SDS011;17667;45.598;5.214;2023-05-10T03:04:04;0.00;;;0.00;;
15577;SDS011;17667;45.598;5.214;2023-05-10T03:06:53;0.10;;;0.07;;
15577;SDS011;17667;45.598;5.214;2023-05-10T03:09:40;0.10;;;0.10;;
15577;SDS011;17667;45.598;5.214;2023-05-10T03:12:31;0.10;;;0.10;;
15577;SDS011;17667;45.598;5.214;2023-05-10T03:15:31;0.13;;;0.13;;
15577;SDS011;17667;45.598;5.214;2023-05-10T03:18:33;0.00;;;0.00;;
15577;SDS011;17667;45.598;5.214;2023-05-10T03:21:29;0.10;;;0.10;;
15577;SDS011;17667;45.598;5.214;2023-05-10T03:24:20;0.00;;;0.00;;
15577;SDS011;17667;45.598;5.214;2023-05-10T03:27:10;0.00;;;0.00;;
15577;SDS011;17667;45.598;5.214;2023-05-10T03:29:58;0.00;;;0.00;;
15577;SDS011;17667;45.598;5.214;2023-05-10T03:32:49;0.10;;;0.10;;
15577;SDS011;17667;45.598;5.214;2023-05-10T03:35:37;0.00;;;0.00;;
15577;SDS011;17667;45.598;5.214;2023-05-10T03:38:25;0.00;;;0.00;;
15577;SDS011;17667;45.598;5.214;2023-05-10T03:41:13;0.10;;;0.10;;
15577;SDS011;17667;45.598;5.214;2023-05-10T03:44:01;0.10;;;0.10;;
15577;SDS011;17667;45.598;5.214;2023-05-10T03:46:49;0.10;;;0.10;;
15577;SDS011;17667;45.598;5.214;2023-05-10T03:49:38;0.00;;;0.00;;
15577;SDS011;17667;45.598;5.214;2023-05-10T03:52:26;0.00;;;0.00;;
15577;SDS011;17667;45.598;5.214;2023-05-10T03:55:13;0.10;;;0.10;;
15577;SDS011;17667;45.598;5.214;2023-05-10T03:58:02;0.10;;;0.10;;
15577;SDS011;17667;45.598;5.214;2023-05-10T04:00:51;0.10;;;0.00;;
15577;SDS011;17667;45.598;5.214;2023-05-10T04:03:39;0.00;;;0.00;;
15577;SDS011;17667;45.598;5.214;2023-05-10T04:06:28;0.10;;;0.10;;
15577;SDS011;17667;45.598;5.214;2023-05-10T04:09:16;0.10;;;0.10;;
15577;SDS011;17667;45.598;5.214;2023-05-10T04:12:04;0.10;;;0.10;;
15577;SDS011;17667;45.598;5.214;2023-05-10T04:14:53;0.10;;;0.10;;
15577;SDS011;17667;45.598;5.214;2023-05-10T04:17:41;0.10;;;0.10;;
15577;SDS011;17667;45.598;5.214;2023-05-10T04:20:29;0.10;;;0.10;;
15577;SDS011;17667;45.598;5.214;2023-05-10T04:23:20;0.10;;;0.10;;
15577;SDS011;17667;45.598;5.214;2023-05-10T04:26:07;0.07;;;0.07;;
15577;SDS011;17667;45.598;5.214;2023-05-10T04:28:54;0.20;;;0.20;;
15577;SDS011;17667;45.598;5.214;2023-05-10T04:31:42;0.10;;;0.10;;
15577;SDS011;17667;45.598;5.214;2023-05-10T04:34:30;0.00;;;0.00;;
15577;SDS011;17667;45.598;5.214;2023-05-10T04:37:19;0.00;;;0.00;;
15577;SDS011;17667;45.598;5.214;2023-05-10T04:40:10;0.10;;;0.10;;
15577;SDS011;17667;45.598;5.214;2023-05-10T04:42:58;0.00;;;0.00;;
15577;SDS011;17667;45.598;5.214;2023-05-10T04:45:46;0.10;;;0.10;;
15577;SDS011;17667;45.598;5.214;2023-05-10T04:48:36;0.00;;;0.00;;
15577;SDS011;17667;45.598;5.214;2023-05-10T04:51:23;0.10;;;0.10;;
15577;SDS011;17667;45.598;5.214;2023-05-10T04:54:11;0.00;;;0.00;;
15577;SDS011;17667;45.598;5.214;2023-05-10T04:57:00;0.10;;;0.10;;
15577;SDS011;17667;45.598;5.214;2023-05-10T04:59:48;0.10;;;0.10;;
15577;SDS011;17667;45.598;5.214;2023-05-10T05:02:35;0.00;;;0.00;;
15577;SDS011;17667;45.598;5.214;2023-05-10T05:05:23;0.00;;;0.00;;
15577;SDS011;17667;45.598;5.214;2023-05-10T05:08:11;0.00;;;0.00;;
15577;SDS011;17667;45.598;5.214;2023-05-10T05:10:58;0.20;;;0.13;;
15577;SDS011;17667;45.598;5.214;2023-05-10T05:13:47;0.10;;;0.10;;
15577;SDS011;17667;45.598;5.214;2023-05-10T05:16:35;0.20;;;0.10;;
15577;SDS011;17667;45.598;5.214;2023-05-10T05:19:23;0.10;;;0.10;;
15577;SDS011;17667;45.598;5.214;2023-05-10T05:22:10;0.00;;;0.00;;
15577;SDS011;17667;45.598;5.214;2023-05-10T05:24:58;0.83;;;0.20;;
15577;SDS011;17667;45.598;5.214;2023-05-10T05:27:48;0.10;;;0.10;;
15577;SDS011;17667;45.598;5.214;2023-05-10T05:30:37;0.10;;;0.10;;
15577;SDS011;17667;45.598;5.214;2023-05-10T05:33:24;0.10;;;0.10;;
15577;SDS011;17667;45.598;5.214;2023-05-10T05:36:12;0.00;;;0.00;;
15577;SDS011;17667;45.598;5.214;2023-05-10T05:38:59;0.10;;;0.10;;
15577;SDS011;17667;45.598;5.214;2023-05-10T05:41:47;0.10;;;0.10;;
15577;SDS011;17667;45.598;5.214;2023-05-10T05:44:35;0.10;;;0.10;;
15577;SDS011;17667;45.598;5.214;2023-05-10T05:47:24;0.20;;;0.20;;
15577;SDS011;17667;45.598;5.214;2023-05-10T05:50:11;0.47;;;0.17;;
15577;SDS011;17667;45.598;5.214;2023-05-10T05:52:59;0.10;;;0.10;;
15577;SDS011;17667;45.598;5.214;2023-05-10T05:55:53;0.10;;;0.10;;
15577;SDS011;17667;45.598;5.214;2023-05-10T05:58:42;0.20;;;0.20;;
15577;SDS011;17667;45.598;5.214;2023-05-10T06:01:30;0.10;;;0.10;;
15577;SDS011;17667;45.598;5.214;2023-05-10T06:04:19;0.20;;;0.20;;
15577;SDS011;17667;45.598;5.214;2023-05-10T06:07:06;0.10;;;0.10;;
15577;SDS011;17667;45.598;5.214;2023-05-10T06:09:54;0.20;;;0.20;;
15577;SDS011;17667;45.598;5.214;2023-05-10T06:12:42;0.03;;;0.03;;
15577;SDS011;17667;45.598;5.214;2023-05-10T06:15:30;0.20;;;0.20;;
15577;SDS011;17667;45.598;5.214;2023-05-10T06:18:18;0.40;;;0.23;;
15577;SDS011;17667;45.598;5.214;2023-05-10T06:21:07;0.30;;;0.30;;
15577;SDS011;17667;45.598;5.214;2023-05-10T06:23:54;0.30;;;0.27;;
15577;SDS011;17667;45.598;5.214;2023-05-10T06:26:42;0.33;;;0.30;;
15577;SDS011;17667;45.598;5.214;2023-05-10T06:29:30;0.20;;;0.20;;
15577;SDS011;17667;45.598;5.214;2023-05-10T06:32:18;0.23;;;0.23;;
15577;SDS011;17667;45.598;5.214;2023-05-10T06:35:06;0.97;;;0.30;;
15577;SDS011;17667;45.598;5.214;2023-05-10T06:37:56;0.30;;;0.20;;
15577;SDS011;17667;45.598;5.214;2023-05-10T06:40:43;0.40;;;0.30;;
15577;SDS011;17667;45.598;5.214;2023-05-10T06:43:31;0.40;;;0.30;;
15577;SDS011;17667;45.598;5.214;2023-05-10T06:46:18;0.30;;;0.30;;
15577;SDS011;17667;45.598;5.214;2023-05-10T06:49:06;0.70;;;0.20;;
15577;SDS011;17667;45.598;5.214;2023-05-10T06:51:55;0.27;;;0.20;;
15577;SDS011;17667;45.598;5.214;2023-05-10T06:54:43;0.20;;;0.20;;
15577;SDS011;17667;45.598;5.214;2023-05-10T06:57:31;0.20;;;0.20;;
15577;SDS011;17667;45.598;5.214;2023-05-10T07:00:19;0.13;;;0.13;;
15577;SDS011;17667;45.598;5.214;2023-05-10T07:03:07;0.30;;;0.30;;
15577;SDS011;17667;45.598;5.214;2023-05-10T07:05:59;0.23;;;0.20;;
15577;SDS011;17667;45.598;5.214;2023-05-10T07:08:48;0.20;;;0.20;;
15577;SDS011;17667;45.598;5.214;2023-05-10T07:11:38;0.23;;;0.23;;
15577;SDS011;17667;45.598;5.214;2023-05-10T07:14:25;0.20;;;0.20;;
15577;SDS011;17667;45.598;5.214;2023-05-10T07:17:12;0.30;;;0.20;;
15577;SDS011;17667;45.598;5.214;2023-05-10T07:20:00;0.30;;;0.20;;
15577;SDS011;17667;45.598;5.214;2023-05-10T07:22:49;0.20;;;0.20;;
15577;SDS011;17667;45.598;5.214;2023-05-10T07:25:37;0.23;;;0.23;;
15577;SDS011;17667;45.598;5.214;2023-05-10T07:28:26;0.27;;;0.20;;
15577;SDS011;17667;45.598;5.214;2023-05-10T07:31:13;0.10;;;0.10;;
15577;SDS011;17667;45.598;5.214;2023-05-10T07:34:01;0.10;;;0.10;;
15577;SDS011;17667;45.598;5.214;2023-05-10T07:36:48;0.10;;;0.10;;
15577;SDS011;17667;45.598;5.214;2023-05-10T07:39:36;0.30;;;0.30;;
15577;SDS011;17667;45.598;5.214;2023-05-10T07:42:24;0.20;;;0.20;;
15577;SDS011;17667;45.598;5.214;2023-05-10T07:45:13;0.23;;;0.23;;
15577;SDS011;17667;45.598;5.214;2023-05-10T07:48:01;0.20;;;0.20;;
15577;SDS011;17667;45.598;5.214;2023-05-10T07:50:50;0.13;;;0.13;;
15577;SDS011;17667;45.598;5.214;2023-05-10T07:53:37;0.20;;;0.20;;
15577;SDS011;17667;45.598;5.214;2023-05-10T07:56:26;0.20;;;0.20;;
15577;SDS011;17667;45.598;5.214;2023-05-10T07:59:16;0.30;;;0.17;;
15577;SDS011;17667;45.598;5.214;2023-05-10T08:02:05;0.20;;;0.20;;
15577;SDS011;17667;45.598;5.214;2023-05-10T08:04:53;0.20;;;0.20;;
15577;SDS011;17667;45.598;5.214;2023-05-10T08:07:41;0.20;;;0.20;;
15577;SDS011;17667;45.598;5.214;2023-05-10T08:10:29;0.20;;;0.20;;
15577;SDS011;17667;45.598;5.214;2023-05-10T08:13:16;0.30;;;0.20;;
15577;SDS011;17667;45.598;5.214;2023-05-10T08:16:04;0.60;;;0.30;;
15577;SDS011;17667;45.598;5.214;2023-05-10T08:18:54;0.47;;;0.30;;
15577;SDS011;17667;45.598;5.214;2023-05-10T08:21:42;0.20;;;0.20;;
15577;SDS011;17667;45.598;5.214;2023-05-10T08:24:30;0.50;;;0.40;;
15577;SDS011;17667;45.598;5.214;2023-05-10T08:27:17;0.40;;;0.20;;
15577;SDS011;17667;45.598;5.214;2023-05-10T08:30:06;0.30;;;0.30;;
15577;SDS011;17667;45.598;5.214;2023-05-10T08:32:54;0.20;;;0.20;;
15577;SDS011;17667;45.598;5.214;2023-05-10T08:35:43;0.30;;;0.30;;
15577;SDS011;17667;45.598;5.214;2023-05-10T08:38:31;0.20;;;0.20;;
15577;SDS011;17667;45.598;5.214;2023-05-10T08:41:19;0.20;;;0.20;;
15577;SDS011;17667;45.598;5.214;2023-05-10T08:44:07;0.20;;;0.20;;
15577;SDS011;17667;45.598;5.214;2023-05-10T08:46:55;0.20;;;0.20;;
15577;SDS011;17667;45.598;5.214;2023-05-10T08:49:47;0.10;;;0.10;;
15577;SDS011;17667;45.598;5.214;2023-05-10T08:52:38;0.20;;;0.20;;
15577;SDS011;17667;45.598;5.214;2023-05-10T08:55:27;0.93;;;0.10;;
15577;SDS011;17667;45.598;5.214;2023-05-10T08:58:15;0.30;;;0.30;;
15577;SDS011;17667;45.598;5.214;2023-05-10T09:01:05;0.23;;;0.23;;
15577;SDS011;17667;45.598;5.214;2023-05-10T09:03:53;0.63;;;0.30;;
15577;SDS011;17667;45.598;5.214;2023-05-10T09:06:41;0.10;;;0.10;;
15577;SDS011;17667;45.598;5.214;2023-05-10T09:09:29;0.20;;;0.20;;
15577;SDS011;17667;45.598;5.214;2023-05-10T09:12:18;0.53;;;0.33;;
15577;SDS011;17667;45.598;5.214;2023-05-10T09:15:06;0.30;;;0.30;;
15577;SDS011;17667;45.598;5.214;2023-05-10T09:17:55;0.20;;;0.20;;
15577;SDS011;17667;45.598;5.214;2023-05-10T09:20:45;0.20;;;0.20;;
15577;SDS011;17667;45.598;5.214;2023-05-10T09:23:32;0.47;;;0.40;;
15577;SDS011;17667;45.598;5.214;2023-05-10T09:26:23;0.20;;;0.20;;
15577;SDS011;17667;45.598;5.214;2023-05-10T09:29:11;0.30;;;0.30;;
15577;SDS011;17667;45.598;5.214;2023-05-10T09:32:00;0.60;;;0.30;;
15577;SDS011;17667;45.598;5.214;2023-05-10T09:34:47;0.20;;;0.20;;
15577;SDS011;17667;45.598;5.214;2023-05-10T09:37:36;0.30;;;0.30;;
15577;SDS011;17667;45.598;5.214;2023-05-10T09:40:27;0.40;;;0.30;;
15577;SDS011;17667;45.598;5.214;2023-05-10T09:43:17;0.40;;;0.40;;
15577;SDS011;17667;45.598;5.214;2023-05-10T09:46:08;0.20;;;0.20;;
15577;SDS011;17667;45.598;5.214;2023-05-10T09:48:56;0.20;;;0.20;;
15577;SDS011;17667;45.598;5.214;2023-05-10T09:51:45;0.20;;;0.20;;
15577;SDS011;17667;45.598;5.214;2023-05-10T09:54:32;0.20;;;0.20;;
15577;SDS011;17667;45.598;5.214;2023-05-10T09:57:21;0.20;;;0.20;;
15577;SDS011;17667;45.598;5.214;2023-05-10T10:00:11;0.17;;;0.17;;
15577;SDS011;17667;45.598;5.214;2023-05-10T10:03:04;0.13;;;0.13;;
15577;SDS011;17667;45.598;5.214;2023-05-10T10:05:53;0.20;;;0.20;;
15577;SDS011;17667;45.598;5.214;2023-05-10T10:08:41;0.10;;;0.10;;
15577;SDS011;17667;45.598;5.214;2023-05-10T10:11:29;0.13;;;0.13;;
15577;SDS011;17667;45.598;5.214;2023-05-10T10:14:16;0.20;;;0.20;;
15577;SDS011;17667;45.598;5.214;2023-05-10T10:17:07;0.30;;;0.30;;
15577;SDS011;17667;45.598;5.214;2023-05-10T10:19:55;0.23;;;0.20;;
15577;SDS011;17667;45.598;5.214;2023-05-10T10:22:44;0.20;;;0.20;;
15577;SDS011;17667;45.598;5.214;2023-05-10T10:25:32;0.20;;;0.20;;
15577;SDS011;17667;45.598;5.214;2023-05-10T10:28:24;0.27;;;0.20;;
15577;SDS011;17667;45.598;5.214;2023-05-10T10:31:23;0.20;;;0.20;;
15577;SDS011;17667;45.598;5.214;2023-05-10T10:34:25;0.57;;;0.20;;
15577;SDS011;17667;45.598;5.214;2023-05-10T10:37:14;0.43;;;0.30;;
15577;SDS011;17667;45.598;5.214;2023-05-10T10:40:07;0.30;;;0.30;;
15577;SDS011;17667;45.598;5.214;2023-05-10T10:43:22;0.50;;;0.30;;
15577;SDS011;17667;45.598;5.214;2023-05-10T10:46:11;0.20;;;0.20;;
15577;SDS011;17667;45.598;5.214;2023-05-10T10:49:08;0.10;;;0.10;;
15577;SDS011;17667;45.598;5.214;2023-05-10T10:52:20;0.40;;;0.20;;
15577;SDS011;17667;45.598;5.214;2023-05-10T10:55:12;0.30;;;0.20;;
15577;SDS011;17667;45.598;5.214;2023-05-10T10:58:03;0.33;;;0.27;;
15577;SDS011;17667;45.598;5.214;2023-05-10T11:00:51;0.20;;;0.20;;
15577;SDS011;17667;45.598;5.214;2023-05-10T11:10:10;0.20;;;0.20;;
15577;SDS011;17667;45.598;5.214;2023-05-10T11:12:58;0.20;;;0.20;;
15577;SDS011;17667;45.598;5.214;2023-05-10T11:15:48;0.30;;;0.30;;
15577;SDS011;17667;45.598;5.214;2023-05-10T11:18:36;0.30;;;0.30;;
15577;SDS011;17667;45.598;5.214;2023-05-10T11:21:24;0.33;;;0.27;;
15577;SDS011;17667;45.598;5.214;2023-05-10T11:24:14;0.20;;;0.20;;
15577;SDS011;17667;45.598;5.214;2023-05-10T11:27:02;0.30;;;0.30;;
15577;SDS011;17667;45.598;5.214;2023-05-10T11:29:51;0.20;;;0.20;;
15577;SDS011;17667;45.598;5.214;2023-05-10T11:32:39;0.30;;;0.30;;
15577;SDS011;17667;45.598;5.214;2023-05-10T11:35:27;0.40;;;0.40;;
15577;SDS011;17667;45.598;5.214;2023-05-10T11:38:15;0.20;;;0.20;;
15577;SDS011;17667;45.598;5.214;2023-05-10T11:41:04;0.50;;;0.30;;
15577;SDS011;17667;45.598;5.214;2023-05-10T11:43:52;0.40;;;0.40;;
15577;SDS011;17667;45.598;5.214;2023-05-10T11:46:40;0.50;;;0.40;;
15577;SDS011;17667;45.598;5.214;2023-05-10T11:49:28;0.30;;;0.30;;
15577;SDS011;17667;45.598;5.214;2023-05-10T11:52:15;0.23;;;0.23;;
15577;SDS011;17667;45.598;5.214;2023-05-10T11:55:06;0.30;;;0.30;;
15577;SDS011;17667;45.598;5.214;2023-05-10T11:57:55;0.60;;;0.40;;
15577;SDS011;17667;45.598;5.214;2023-05-10T12:00:47;0.30;;;0.30;;
15577;SDS011;17667;45.598;5.214;2023-05-10T12:03:35;0.40;;;0.20;;
15577;SDS011;17667;45.598;5.214;2023-05-10T12:06:25;0.20;;;0.20;;
15577;SDS011;17667;45.598;5.214;2023-05-10T12:09:13;0.53;;;0.27;;
15577;SDS011;17667;45.598;5.214;2023-05-10T12:12:02;0.30;;;0.30;;
15577;SDS011;17667;45.598;5.214;2023-05-10T12:14:51;0.40;;;0.30;;
15577;SDS011;17667;45.598;5.214;2023-05-10T12:17:39;0.30;;;0.30;;
15577;SDS011;17667;45.598;5.214;2023-05-10T12:20:28;0.43;;;0.20;;
15577;SDS011;17667;45.598;5.214;2023-05-10T12:23:15;0.43;;;0.40;;
15577;SDS011;17667;45.598;5.214;2023-05-10T12:26:03;0.20;;;0.20;;
15577;SDS011;17667;45.598;5.214;2023-05-10T12:28:52;0.20;;;0.20;;
15577;SDS011;17667;45.598;5.214;2023-05-10T12:31:53;0.30;;;0.30;;
15577;SDS011;17667;45.598;5.214;2023-05-10T12:34:42;0.20;;;0.20;;
15577;SDS011;17667;45.598;5.214;2023-05-10T12:37:33;0.40;;;0.30;;
15577;SDS011;17667;45.598;5.214;2023-05-10T12:40:24;0.47;;;0.40;;
15577;SDS011;17667;45.598;5.214;2023-05-10T12:43:11;0.30;;;0.30;;
15577;SDS011;17667;45.598;5.214;2023-05-10T12:46:03;0.30;;;0.30;;
15577;SDS011;17667;45.598;5.214;2023-05-10T12:48:53;0.20;;;0.20;;
15577;SDS011;17667;45.598;5.214;2023-05-10T12:51:48;0.47;;;0.30;;
15577;SDS011;17667;45.598;5.214;2023-05-10T12:54:36;0.20;;;0.20;;
15577;SDS011;17667;45.598;5.214;2023-05-10T12:57:24;0.20;;;0.20;;
15577;SDS011;17667;45.598;5.214;2023-05-10T13:00:12;0.20;;;0.20;;
15577;SDS011;17667;45.598;5.214;2023-05-10T13:03:00;0.20;;;0.20;;
15577;SDS011;17667;45.598;5.214;2023-05-10T13:05:49;0.53;;;0.20;;
15577;SDS011;17667;45.598;5.214;2023-05-10T13:08:37;0.20;;;0.20;;
15577;SDS011;17667;45.598;5.214;2023-05-10T13:11:24;0.20;;;0.20;;
15577;SDS011;17667;45.598;5.214;2023-05-10T13:14:12;0.20;;;0.20;;
15577;SDS011;17667;45.598;5.214;2023-05-10T13:17:00;0.20;;;0.20;;
15577;SDS011;17667;45.598;5.214;2023-05-10T13:19:48;0.30;;;0.30;;
15577;SDS011;17667;45.598;5.214;2023-05-10T13:22:36;0.10;;;0.10;;
15577;SDS011;17667;45.598;5.214;2023-05-10T13:25:25;0.30;;;0.30;;
15577;SDS011;17667;45.598;5.214;2023-05-10T13:28:13;0.20;;;0.20;;
15577;SDS011;17667;45.598;5.214;2023-05-10T13:31:00;0.30;;;0.30;;
15577;SDS011;17667;45.598;5.214;2023-05-10T13:33:48;0.10;;;0.10;;
15577;SDS011;17667;45.598;5.214;2023-05-10T13:36:36;0.20;;;0.17;;
15577;SDS011;17667;45.598;5.214;2023-05-10T13:39:25;0.33;;;0.20;;
15577;SDS011;17667;45.598;5.214;2023-05-10T13:42:15;0.27;;;0.20;;
15577;SDS011;17667;45.598;5.214;2023-05-10T13:45:04;0.20;;;0.20;;
15577;SDS011;17667;45.598;5.214;2023-05-10T13:47:52;0.60;;;0.27;;
15577;SDS011;17667;45.598;5.214;2023-05-10T13:50:40;0.20;;;0.20;;
15577;SDS011;17667;45.598;5.214;2023-05-10T13:53:28;0.20;;;0.20;;
15577;SDS011;17667;45.598;5.214;2023-05-10T13:56:17;0.30;;;0.20;;
15577;SDS011;17667;45.598;5.214;2023-05-10T13:59:04;0.40;;;0.30;;
15577;SDS011;17667;45.598;5.214;2023-05-10T14:01:52;0.43;;;0.30;;
15577;SDS011;17667;45.598;5.214;2023-05-10T14:04:39;0.33;;;0.20;;
15577;SDS011;17667;45.598;5.214;2023-05-10T14:07:27;0.30;;;0.27;;
15577;SDS011;17667;45.598;5.214;2023-05-10T14:10:15;0.33;;;0.30;;
15577;SDS011;17667;45.598;5.214;2023-05-10T14:13:04;0.20;;;0.20;;
15577;SDS011;17667;45.598;5.214;2023-05-10T14:15:52;0.10;;;0.10;;
15577;SDS011;17667;45.598;5.214;2023-05-10T14:18:40;0.30;;;0.30;;
15577;SDS011;17667;45.598;5.214;2023-05-10T14:21:28;0.20;;;0.20;;
15577;SDS011;17667;45.598;5.214;2023-05-10T14:24:16;0.57;;;0.43;;
15577;SDS011;17667;45.598;5.214;2023-05-10T14:27:04;0.20;;;0.20;;
15577;SDS011;17667;45.598;5.214;2023-05-10T14:29:53;0.40;;;0.27;;
15577;SDS011;17667;45.598;5.214;2023-05-10T14:32:41;0.40;;;0.20;;
15577;SDS011;17667;45.598;5.214;2023-05-10T14:35:28;0.20;;;0.20;;
15577;SDS011;17667;45.598;5.214;2023-05-10T14:38:17;0.20;;;0.20;;
15577;SDS011;17667;45.598;5.214;2023-05-10T14:41:05;0.20;;;0.20;;
15577;SDS011;17667;45.598;5.214;2023-05-10T14:43:54;0.10;;;0.10;;
15577;SDS011;17667;45.598;5.214;2023-05-10T14:46:43;0.10;;;0.10;;
15577;SDS011;17667;45.598;5.214;2023-05-10T14:49:30;0.20;;;0.17;;
15577;SDS011;17667;45.598;5.214;2023-05-10T14:52:18;0.10;;;0.10;;
15577;SDS011;17667;45.598;5.214;2023-05-10T14:55:06;0.10;;;0.10;;
15577;SDS011;17667;45.598;5.214;2023-05-10T14:57:55;0.30;;;0.30;;
15577;SDS011;17667;45.598;5.214;2023-05-10T15:00:43;0.23;;;0.20;;
15577;SDS011;17667;45.598;5.214;2023-05-10T15:03:33;0.47;;;0.33;;
15577;SDS011;17667;45.598;5.214;2023-05-10T15:06:22;0.20;;;0.20;;
15577;SDS011;17667;45.598;5.214;2023-05-10T15:09:11;0.40;;;0.30;;
15577;SDS011;17667;45.598;5.214;2023-05-10T15:11:59;0.30;;;0.30;;
15577;SDS011;17667;45.598;5.214;2023-05-10T15:14:46;0.20;;;0.20;;
15577;SDS011;17667;45.598;5.214;2023-05-10T15:17:34;0.30;;;0.30;;
15577;SDS011;17667;45.598;5.214;2023-05-10T15:20:23;0.20;;;0.20;;
15577;SDS011;17667;45.598;5.214;2023-05-10T15:23:10;0.30;;;0.20;;
15577;SDS011;17667;45.598;5.214;2023-05-10T15:25:58;0.30;;;0.30;;
15577;SDS011;17667;45.598;5.214;2023-05-10T15:28:45;0.20;;;0.20;;
15577;SDS011;17667;45.598;5.214;2023-05-10T15:31:33;0.20;;;0.20;;
15577;SDS011;17667;45.598;5.214;2023-05-10T15:34:21;0.20;;;0.20;;
15577;SDS011;17667;45.598;5.214;2023-05-10T15:37:11;0.20;;;0.20;;
15577;SDS011;17667;45.598;5.214;2023-05-10T15:39:58;0.40;;;0.20;;
15577;SDS011;17667;45.598;5.214;2023-05-10T15:42:49;0.10;;;0.10;;
15577;SDS011;17667;45.598;5.214;2023-05-10T15:45:37;0.20;;;0.17;;
15577;SDS011;17667;45.598;5.214;2023-05-10T15:48:24;0.23;;;0.20;;
15577;SDS011;17667;45.598;5.214;2023-05-10T15:51:12;0.20;;;0.20;;
15577;SDS011;17667;45.598;5.214;2023-05-10T15:54:01;0.13;;;0.10;;
15577;SDS011;17667;45.598;5.214;2023-05-10T15:56:52;0.20;;;0.20;;
15577;SDS011;17667;45.598;5.214;2023-05-10T15:59:40;0.13;;;0.13;;
15577;SDS011;17667;45.598;5.214;2023-05-10T16:02:28;0.23;;;0.20;;
15577;SDS011;17667;45.598;5.214;2023-05-10T16:05:15;0.20;;;0.20;;
15577;SDS011;17667;45.598;5.214;2023-05-10T16:08:03;0.10;;;0.10;;
15577;SDS011;17667;45.598;5.214;2023-05-10T16:10:53;0.10;;;0.10;;
15577;SDS011;17667;45.598;5.214;2023-05-10T16:13:40;0.20;;;0.20;;
15577;SDS011;17667;45.598;5.214;2023-05-10T16:16:28;0.27;;;0.17;;
15577;SDS011;17667;45.598;5.214;2023-05-10T16:19:15;0.10;;;0.10;;
15577;SDS011;17667;45.598;5.214;2023-05-10T16:22:03;0.10;;;0.10;;
15577;SDS011;17667;45.598;5.214;2023-05-10T16:24:51;0.20;;;0.10;;
15577;SDS011;17667;45.598;5.214;2023-05-10T16:27:40;0.20;;;0.20;;
15577;SDS011;17667;45.598;5.214;2023-05-10T16:30:30;0.30;;;0.30;;
15577;SDS011;17667;45.598;5.214;2023-05-10T16:33:18;0.20;;;0.13;;
15577;SDS011;17667;45.598;5.214;2023-05-10T16:36:06;0.20;;;0.10;;
15577;SDS011;17667;45.598;5.214;2023-05-10T16:38:53;0.10;;;0.10;;
15577;SDS011;17667;45.598;5.214;2023-05-10T16:41:41;0.10;;;0.10;;
15577;SDS011;17667;45.598;5.214;2023-05-10T16:44:30;0.00;;;0.00;;
15577;SDS011;17667;45.598;5.214;2023-05-10T16:47:17;0.20;;;0.10;;
15577;SDS011;17667;45.598;5.214;2023-05-10T16:50:05;0.10;;;0.10;;
15577;SDS011;17667;45.598;5.214;2023-05-10T16:52:54;0.20;;;0.10;;
15577;SDS011;17667;45.598;5.214;2023-05-10T16:55:42;0.10;;;0.10;;
15577;SDS011;17667;45.598;5.214;2023-05-10T16:58:29;0.10;;;0.10;;
15577;SDS011;17667;45.598;5.214;2023-05-10T17:01:19;0.10;;;0.10;;
15577;SDS011;17667;45.598;5.214;2023-05-10T17:04:06;0.10;;;0.10;;
15577;SDS011;17667;45.598;5.214;2023-05-10T17:06:54;0.20;;;0.20;;
15577;SDS011;17667;45.598;5.214;2023-05-10T17:09:42;0.10;;;0.10;;